createdAt,value
2023-04-12T00:01:26.354Z,99674.00
2023-04-12T00:03:57.299Z,99667.00
2023-04-12T00:06:27.889Z,99661.00
2023-04-12T00:08:56.322Z,99664.00
2023-04-12T00:11:24.152Z,99665.00
2023-04-12T00:13:52.205Z,99663.00
2023-04-12T00:16:20.093Z,99664.00
2023-04-12T00:18:49.082Z,99652.00
2023-04-12T00:21:19.994Z,99646.00
2023-04-12T00:23:48.541Z,99638.00
2023-04-12T00:26:16.594Z,99632.00
2023-04-12T00:28:45.427Z,99625.00
2023-04-12T00:31:13.473Z,99609.00
2023-04-12T00:33:41.782Z,99609.00
2023-04-12T00:36:09.522Z,99598.00
2023-04-12T00:38:37.221Z,99591.00
2023-04-12T00:41:05.133Z,99587.00
2023-04-12T00:43:32.999Z,99586.00
2023-04-12T00:46:01.091Z,99580.00
2023-04-12T00:48:29.134Z,99577.00
2023-04-12T00:50:58.092Z,99582.00
2023-04-12T00:53:26.748Z,99578.00
2023-04-12T00:55:56.988Z,99579.00
2023-04-12T00:58:24.846Z,99580.00
2023-04-12T01:00:53.291Z,99572.00
2023-04-12T01:03:29.322Z,99561.00
2023-04-12T01:06:05.183Z,99571.00
2023-04-12T01:08:39.588Z,99569.00
2023-04-12T01:11:07.368Z,99557.00
2023-04-12T01:13:54.395Z,99563.00
2023-04-12T01:16:27.661Z,99556.00
2023-04-12T01:18:59.844Z,99550.00
2023-04-12T01:21:31.185Z,99551.00
2023-04-12T01:24:03.705Z,99537.00
2023-04-12T01:27:01.076Z,99540.00
2023-04-12T01:29:29.008Z,99539.00
2023-04-12T01:32:02.021Z,99533.00
2023-04-12T01:34:30.953Z,99538.00
2023-04-12T01:36:59.145Z,99530.00
2023-04-12T01:39:27.723Z,99530.00
2023-04-12T01:41:56.083Z,99523.00
2023-04-12T01:44:24.082Z,99521.00
2023-04-12T01:46:54.017Z,99517.00
2023-04-12T01:49:22.011Z,99501.00
2023-04-12T01:51:54.278Z,99496.00
2023-04-12T01:54:28.147Z,99499.00
2023-04-12T01:57:00.180Z,99488.00
2023-04-12T01:59:29.013Z,99496.00
2023-04-12T02:01:56.952Z,99491.00
2023-04-12T02:04:26.350Z,99493.00
2023-04-12T02:06:56.209Z,99481.00
2023-04-12T02:09:24.233Z,99474.00
2023-04-12T02:11:52.002Z,99471.00
2023-04-12T02:14:19.814Z,99464.00
2023-04-12T02:16:48.546Z,99461.00
2023-04-12T02:19:17.117Z,99453.00
2023-04-12T02:21:45.280Z,99447.00
2023-04-12T02:24:13.416Z,99439.00
2023-04-12T02:26:41.449Z,99429.00
2023-04-12T02:29:10.915Z,99422.00
2023-04-12T02:31:39.640Z,99418.00
2023-04-12T02:34:13.570Z,99421.00
2023-04-12T02:36:50.404Z,99418.00
2023-04-12T02:39:19.082Z,99420.00
2023-04-12T02:41:49.328Z,99419.00
2023-04-12T02:44:18.143Z,99415.00
2023-04-12T02:47:06.509Z,99409.00
2023-04-12T02:49:35.692Z,99397.00
2023-04-12T02:52:04.393Z,99390.00
2023-04-12T02:54:40.120Z,99388.00
2023-04-12T02:57:12.923Z,99383.00
2023-04-12T02:59:44.941Z,99369.00
2023-04-12T03:02:21.366Z,99376.00
2023-04-12T03:04:51.256Z,99372.00
2023-04-12T03:07:24.269Z,99367.00
2023-04-12T03:09:54.655Z,99368.00
2023-04-12T03:12:25.104Z,99365.00
2023-04-12T03:15:14.593Z,99363.00
2023-04-12T03:17:46.891Z,99355.00
2023-04-12T03:20:17.571Z,99356.00
2023-04-12T03:22:52.768Z,99356.00
2023-04-12T03:25:21.203Z,99352.00
2023-04-12T03:27:55.448Z,99346.00
2023-04-12T03:30:30.756Z,99348.00
2023-04-12T03:32:58.983Z,99334.00
2023-04-12T03:35:28.298Z,99337.00
2023-04-12T03:37:56.475Z,99328.00
2023-04-12T03:40:24.796Z,99326.00
2023-04-12T03:43:00.022Z,99316.00
2023-04-12T03:45:30.455Z,99307.00
2023-04-12T03:48:01.563Z,99304.00
2023-04-12T03:50:44.963Z,99295.00
2023-04-12T03:53:21.460Z,99289.00
2023-04-12T03:55:50.388Z,99281.00
2023-04-12T03:58:20.237Z,99274.00
2023-04-12T04:00:50.061Z,99270.00
2023-04-12T04:03:18.978Z,99261.00
2023-04-12T04:05:56.355Z,99250.00
2023-04-12T04:08:24.606Z,99246.00
2023-04-12T04:10:53.598Z,99251.00
2023-04-12T04:13:25.858Z,99246.00
2023-04-12T04:16:05.794Z,99242.00
2023-04-12T04:18:36.218Z,99232.00
2023-04-12T04:21:07.680Z,99230.00
2023-04-12T04:23:39.283Z,99231.00
2023-04-12T04:26:10.867Z,99217.00
2023-04-12T04:28:47.470Z,99214.00
2023-04-12T04:31:19.489Z,99215.00
2023-04-12T04:33:51.048Z,99209.00
2023-04-12T04:36:25.079Z,99205.00
2023-04-12T04:38:56.230Z,99210.00
2023-04-12T04:41:55.095Z,99204.00
2023-04-12T04:45:03.318Z,99189.00
2023-04-12T04:47:36.970Z,99205.00
2023-04-12T04:50:05.090Z,99198.00
2023-04-12T04:52:33.376Z,99198.00
2023-04-12T04:55:10.549Z,99197.00
2023-04-12T04:57:39.766Z,99191.00
2023-04-12T05:00:11.719Z,99178.00
2023-04-12T05:02:43.488Z,99189.00
2023-04-12T05:05:16.069Z,99186.00
2023-04-12T05:07:45.836Z,99185.00
2023-04-12T05:10:13.817Z,99183.00
2023-04-12T05:12:43.320Z,99164.00
2023-04-12T05:15:13.434Z,99162.00
2023-04-12T05:17:42.173Z,99158.00
2023-04-12T05:20:11.244Z,99162.00
2023-04-12T05:22:39.971Z,99153.00
2023-04-12T05:25:08.110Z,99147.00
2023-04-12T05:27:42.572Z,99147.00
2023-04-12T05:30:15.729Z,99146.00
2023-04-12T05:32:44.513Z,99143.00
2023-04-12T05:35:14.137Z,99137.00
2023-04-12T05:37:44.273Z,99145.00
2023-04-12T05:40:14.402Z,99129.00
2023-04-12T05:42:43.004Z,99130.00
2023-04-12T05:45:11.161Z,99114.00
2023-04-12T05:47:39.539Z,99123.00
2023-04-12T05:50:07.808Z,99118.00
2023-04-12T05:52:36.883Z,99117.00
2023-04-12T05:55:06.775Z,99105.00
2023-04-12T05:57:38.997Z,99102.00
2023-04-12T06:00:19.186Z,99100.00
2023-04-12T06:02:48.228Z,99117.00
2023-04-12T06:05:19.695Z,99112.00
2023-04-12T06:07:48.491Z,99110.00
2023-04-12T06:10:17.885Z,99107.00
2023-04-12T06:12:50.238Z,99092.00
2023-04-12T06:15:21.139Z,99090.00
2023-04-12T06:17:54.086Z,99098.00
2023-04-12T06:20:21.921Z,99095.00
2023-04-12T06:22:50.073Z,99090.00
2023-04-12T06:25:18.540Z,99078.00
2023-04-12T06:27:48.225Z,99077.00
2023-04-12T06:30:19.857Z,99053.00
2023-04-12T06:32:49.444Z,99051.00
2023-04-12T06:35:17.522Z,99056.00
2023-04-12T06:37:45.942Z,99047.00
2023-04-12T06:40:13.973Z,99047.00
2023-04-12T06:42:41.616Z,99040.00
2023-04-12T06:45:14.630Z,99042.00
2023-04-12T06:47:44.684Z,99036.00
2023-04-12T06:50:15.679Z,99031.00
2023-04-12T06:52:43.555Z,99028.00
2023-04-12T06:55:11.357Z,99026.00
2023-04-12T06:57:39.107Z,99023.00
2023-04-12T07:00:07.227Z,99017.00
2023-04-12T07:02:35.264Z,99005.00
2023-04-12T07:05:03.106Z,99007.00
2023-04-12T07:07:30.758Z,98993.00
2023-04-12T07:09:59.481Z,99004.00
2023-04-12T07:12:27.341Z,99005.00
2023-04-12T07:14:55.043Z,99004.00
2023-04-12T07:17:27.430Z,98995.00
2023-04-12T07:19:55.466Z,98991.00
2023-04-12T07:22:23.325Z,98988.00
2023-04-12T07:24:51.462Z,98991.00
2023-04-12T07:27:19.446Z,98978.00
2023-04-12T07:29:47.132Z,98974.00
2023-04-12T07:32:14.894Z,98971.00
2023-04-12T07:34:42.830Z,98965.00
2023-04-12T07:37:10.558Z,98960.00
2023-04-12T07:39:40.915Z,98954.00
2023-04-12T07:42:08.823Z,98955.00
2023-04-12T07:44:38.684Z,98951.00
2023-04-12T07:47:07.506Z,98945.00
2023-04-12T07:49:35.340Z,98934.00
2023-04-12T07:52:03.200Z,98923.00
2023-04-12T07:54:30.961Z,98929.00
2023-04-12T07:56:59.666Z,98926.00
2023-04-12T07:59:27.524Z,98917.00
2023-04-12T08:01:55.552Z,98915.00
2023-04-12T08:04:26.020Z,98916.00
2023-04-12T08:06:54.341Z,98914.00
2023-04-12T08:09:22.181Z,98918.00
2023-04-12T08:11:49.961Z,98908.00
2023-04-12T08:14:17.819Z,98911.00
2023-04-12T08:16:45.852Z,98896.00
2023-04-12T08:19:13.642Z,98901.00
2023-04-12T08:21:41.347Z,98893.00
2023-04-12T08:24:09.445Z,98891.00
2023-04-12T08:26:38.272Z,98889.00
2023-04-12T08:29:06.388Z,98888.00
2023-04-12T08:31:34.296Z,98888.00
2023-04-12T08:34:02.206Z,98880.00
2023-04-12T08:36:29.994Z,98881.00
2023-04-12T08:39:00.965Z,98872.00
2023-04-12T08:41:28.935Z,98857.00
2023-04-12T08:43:57.019Z,98858.00
2023-04-12T08:46:25.025Z,98846.00
2023-04-12T08:48:55.571Z,98851.00
2023-04-12T08:51:23.361Z,98843.00
2023-04-12T08:53:51.854Z,98854.00
2023-04-12T08:56:19.979Z,98839.00
2023-04-12T08:58:53.599Z,98833.00
2023-04-12T09:01:21.835Z,98830.00
2023-04-12T09:03:49.954Z,98829.00
2023-04-12T09:06:17.902Z,98818.00
2023-04-12T09:08:52.860Z,98821.00
2023-04-12T09:11:29.897Z,98812.00
2023-04-12T09:13:58.909Z,98813.00
2023-04-12T09:16:40.415Z,98804.00
2023-04-12T09:19:08.666Z,98814.00
2023-04-12T09:21:37.018Z,98808.00
2023-04-12T09:24:14.793Z,98810.00
2023-04-12T09:26:43.037Z,98806.00
2023-04-12T09:29:25.381Z,98800.00
2023-04-12T09:31:57.093Z,98802.00
2023-04-12T09:34:27.266Z,98788.00
2023-04-12T09:36:55.779Z,98796.00
2023-04-12T09:39:35.848Z,98786.00
2023-04-12T09:42:14.873Z,98780.00
2023-04-12T09:44:46.273Z,98779.00
2023-04-12T09:47:14.016Z,98777.00
2023-04-12T09:49:45.385Z,98771.00
2023-04-12T09:52:13.920Z,98764.00
2023-04-12T09:54:41.694Z,98767.00
2023-04-12T09:57:09.784Z,98758.00
2023-04-12T09:59:39.493Z,98752.00
2023-04-12T10:02:09.964Z,98748.00
2023-04-12T10:04:38.240Z,98756.00
2023-04-12T10:07:06.656Z,98743.00
2023-04-12T10:09:37.836Z,98739.00
2023-04-12T10:12:05.683Z,98730.00
2023-04-12T10:14:33.450Z,98734.00
2023-04-12T10:17:01.805Z,98732.00
2023-04-12T10:19:30.214Z,98738.00
2023-04-12T10:21:58.122Z,98735.00
2023-04-12T10:24:27.377Z,98730.00
2023-04-12T10:26:56.208Z,98722.00
2023-04-12T10:29:24.964Z,98719.00
2023-04-12T10:32:12.739Z,98715.00
2023-04-12T10:34:42.524Z,98705.00
2023-04-12T10:37:10.174Z,98717.00
2023-04-12T10:39:41.864Z,98711.00
2023-04-12T10:42:25.976Z,98712.00
2023-04-12T10:44:59.639Z,98714.00
2023-04-12T10:47:47.890Z,98708.00
2023-04-12T10:50:30.334Z,98705.00
2023-04-12T10:53:09.107Z,98701.00
2023-04-12T10:55:40.225Z,98707.00
2023-04-12T10:58:08.078Z,98701.00
2023-04-12T11:00:54.455Z,98697.00
2023-04-12T11:03:23.111Z,98699.00
2023-04-12T11:05:57.964Z,98699.00
2023-04-12T11:08:48.859Z,98695.00
2023-04-12T11:11:31.490Z,98688.00
2023-04-12T11:13:59.598Z,98689.00
2023-04-12T11:16:27.497Z,98685.00
2023-04-12T11:18:55.653Z,98684.00
2023-04-12T11:21:24.254Z,98677.00
2023-04-12T11:23:53.098Z,98676.00
2023-04-12T11:26:22.417Z,98675.00
2023-04-12T11:28:53.421Z,98667.00
2023-04-12T11:31:21.968Z,98667.00
2023-04-12T11:33:50.184Z,98676.00
2023-04-12T11:36:17.923Z,98667.00
2023-04-12T11:38:47.741Z,98665.00
2023-04-12T11:41:15.799Z,98654.00
2023-04-12T11:43:44.728Z,98647.00
2023-04-12T11:46:12.459Z,98652.00
2023-04-12T11:48:40.446Z,98650.00
2023-04-12T11:51:32.447Z,98643.00
2023-04-12T11:54:00.704Z,98652.00
2023-04-12T11:56:29.451Z,98641.00
2023-04-12T11:58:57.291Z,98650.00
2023-04-12T12:01:29.205Z,98646.00
2023-04-12T12:03:57.655Z,98640.00
2023-04-12T12:06:26.528Z,98638.00
2023-04-12T12:08:54.606Z,98631.00
2023-04-12T12:11:23.584Z,98622.00
2023-04-12T12:13:52.060Z,98610.00
2023-04-12T12:16:24.503Z,98605.00
2023-04-12T12:18:52.984Z,98606.00
2023-04-12T12:21:21.130Z,98595.00
2023-04-12T12:23:52.329Z,98601.00
2023-04-12T12:26:24.210Z,98596.00
2023-04-12T12:28:53.244Z,98599.00
2023-04-12T12:31:22.198Z,98595.00
2023-04-12T12:33:52.760Z,98587.00
2023-04-12T12:36:23.359Z,98590.00
2023-04-12T12:38:52.284Z,98580.00
2023-04-12T12:41:23.740Z,98579.00
2023-04-12T12:43:52.501Z,98582.00
2023-04-12T12:46:20.745Z,98571.00
2023-04-12T12:48:48.982Z,98559.00
2023-04-12T12:51:20.615Z,98562.00
2023-04-12T12:53:48.751Z,98567.00
2023-04-12T12:56:16.369Z,98557.00
2023-04-12T12:58:44.267Z,98559.00
2023-04-12T13:01:12.088Z,98543.00
2023-04-12T13:03:42.279Z,98544.00
2023-04-12T13:06:10.336Z,98535.00
2023-04-12T13:08:38.371Z,98534.00
2023-04-12T13:11:06.716Z,98531.00
2023-04-12T13:13:34.956Z,98517.00
2023-04-12T13:16:05.961Z,98520.00
2023-04-12T13:18:33.968Z,98524.00
2023-04-12T13:21:03.510Z,98531.00
2023-04-12T13:23:31.305Z,98526.00
2023-04-12T13:25:59.357Z,98521.00
2023-04-12T13:28:27.283Z,98512.00
2023-04-12T13:30:55.149Z,98512.00
2023-04-12T13:33:25.189Z,98513.00
2023-04-12T13:35:52.988Z,98506.00
2023-04-12T13:38:21.257Z,98518.00
2023-04-12T13:40:49.497Z,98512.00
2023-04-12T13:43:17.297Z,98504.00
2023-04-12T13:45:47.948Z,98500.00
2023-04-12T13:48:16.004Z,98492.00
2023-04-12T13:50:43.913Z,98492.00
2023-04-12T13:53:12.179Z,98489.00
2023-04-12T13:55:40.045Z,98489.00
2023-04-12T13:58:07.926Z,98481.00
2023-04-12T14:00:35.658Z,98488.00
2023-04-12T14:03:03.480Z,98488.00
2023-04-12T14:05:31.536Z,98481.00
2023-04-12T14:07:59.386Z,98473.00
2023-04-12T14:10:27.284Z,98467.00
2023-04-12T14:12:55.117Z,98458.00
2023-04-12T14:15:23.031Z,98464.00
2023-04-12T14:17:51.276Z,98468.00
2023-04-12T14:20:20.808Z,98465.00
2023-04-12T14:22:48.998Z,98453.00
2023-04-12T14:25:16.888Z,98450.00
2023-04-12T14:27:44.852Z,98452.00
2023-04-12T14:30:12.945Z,98454.00
2023-04-12T14:32:41.819Z,98448.00
2023-04-12T14:35:10.068Z,98436.00
2023-04-12T14:37:38.261Z,98434.00
2023-04-12T14:40:09.175Z,98423.00
2023-04-12T14:42:38.068Z,98424.00
2023-04-12T14:45:08.201Z,98413.00
2023-04-12T14:47:36.186Z,98417.00
2023-04-12T14:50:07.237Z,98400.00
2023-04-12T14:52:35.196Z,98398.00
2023-04-12T14:55:04.009Z,98407.00
2023-04-12T14:57:31.924Z,98404.00
2023-04-12T14:59:59.786Z,98423.00
2023-04-12T15:02:27.960Z,98432.00
2023-04-12T15:04:56.068Z,98436.00
2023-04-12T15:07:23.977Z,98432.00
2023-04-12T15:09:51.719Z,98426.00
2023-04-12T15:12:19.583Z,98423.00
2023-04-12T15:14:47.750Z,98424.00
2023-04-12T15:17:15.691Z,98422.00
2023-04-12T15:19:43.640Z,98416.00
2023-04-12T15:22:11.411Z,98419.00
2023-04-12T15:24:39.253Z,98420.00
2023-04-12T15:27:08.470Z,98419.00
2023-04-12T15:29:36.230Z,98405.00
2023-04-12T15:32:03.953Z,98407.00
2023-04-12T15:34:34.118Z,98404.00
2023-04-12T15:37:03.990Z,98397.00
2023-04-12T15:39:32.091Z,98395.00
2023-04-12T15:42:01.135Z,98401.00
2023-04-12T15:44:32.183Z,98398.00
2023-04-12T15:47:10.263Z,98390.00
2023-04-12T15:49:39.855Z,98386.00
2023-04-12T15:52:08.207Z,98383.00
2023-04-12T15:54:43.609Z,98374.00
2023-04-12T15:57:11.816Z,98389.00
2023-04-12T15:59:40.732Z,98386.00
2023-04-12T16:02:10.173Z,98388.00
2023-04-12T16:04:38.471Z,98382.00
2023-04-12T16:07:06.449Z,98385.00
2023-04-12T16:09:35.206Z,98386.00
2023-04-12T16:12:02.981Z,98386.00
2023-04-12T16:14:31.187Z,98383.00
2023-04-12T16:16:59.413Z,98378.00
2023-04-12T16:19:27.431Z,98377.00
2023-04-12T16:21:55.444Z,98380.00
2023-04-12T16:24:23.365Z,98378.00
2023-04-12T16:26:51.132Z,98375.00
2023-04-12T16:29:19.207Z,98376.00
2023-04-12T16:31:47.862Z,98371.00
2023-04-12T16:34:16.079Z,98375.00
2023-04-12T16:36:45.017Z,98379.00
2023-04-12T16:39:13.479Z,98378.00
2023-04-12T16:41:50.346Z,98374.00
2023-04-12T16:44:19.264Z,98366.00
2023-04-12T16:46:49.059Z,98368.00
2023-04-12T16:49:19.627Z,98376.00
2023-04-12T16:51:47.856Z,98370.00
2023-04-12T16:54:15.829Z,98361.00
2023-04-12T16:56:43.727Z,98359.00
2023-04-12T16:59:11.653Z,98359.00
2023-04-12T17:01:39.543Z,98350.00
2023-04-12T17:04:07.326Z,98346.00
2023-04-12T17:06:35.437Z,98337.00
2023-04-12T17:09:03.965Z,98337.00
2023-04-12T17:11:32.056Z,98336.00
2023-04-12T17:14:00.617Z,98336.00
2023-04-12T17:16:28.688Z,98336.00
2023-04-12T17:18:57.306Z,98337.00
2023-04-12T17:21:26.554Z,98341.00
2023-04-12T17:23:56.261Z,98350.00
2023-04-12T17:26:26.592Z,98337.00
2023-04-12T17:28:54.875Z,98348.00
2023-04-12T17:31:22.937Z,98343.00
2023-04-12T17:33:51.189Z,98343.00
2023-04-12T17:36:19.322Z,98341.00
2023-04-12T17:38:49.741Z,98321.00
2023-04-12T17:41:17.439Z,98317.00
2023-04-12T17:43:47.276Z,98322.00
2023-04-12T17:46:15.603Z,98323.00
2023-04-12T17:48:43.481Z,98317.00
2023-04-12T17:51:11.418Z,98335.00
2023-04-12T17:53:44.143Z,98340.00
2023-04-12T17:56:11.885Z,98341.00
2023-04-12T17:58:39.663Z,98345.00
2023-04-12T18:01:07.292Z,98347.00
2023-04-12T18:03:35.236Z,98338.00
2023-04-12T18:06:04.453Z,98342.00
2023-04-12T18:08:32.302Z,98341.00
2023-04-12T18:11:00.912Z,98332.00
2023-04-12T18:13:28.984Z,98341.00
2023-04-12T18:15:56.816Z,98362.00
2023-04-12T18:18:24.974Z,98363.00
2023-04-12T18:20:53.012Z,98362.00
2023-04-12T18:23:21.659Z,98384.00
2023-04-12T18:25:49.606Z,98400.00
2023-04-12T18:28:18.081Z,98416.00
2023-04-12T18:30:46.090Z,98420.00
2023-04-12T18:33:14.003Z,98391.00
2023-04-12T18:35:42.462Z,98377.00
2023-04-12T18:38:10.469Z,98389.00
2023-04-12T18:40:38.801Z,98401.00
2023-04-12T18:43:06.634Z,98416.00
2023-04-12T18:45:38.500Z,98426.00
2023-04-12T18:48:06.418Z,98438.00
2023-04-12T18:50:34.582Z,98446.00
2023-04-12T18:53:02.461Z,98439.00
2023-04-12T18:55:30.555Z,98441.00
2023-04-12T18:57:58.458Z,98436.00
2023-04-12T19:00:26.335Z,98444.00
2023-04-12T19:02:54.334Z,98441.00
2023-04-12T19:05:22.299Z,98443.00
2023-04-12T19:07:50.940Z,98456.00
2023-04-12T19:10:18.893Z,98458.00
2023-04-12T19:12:46.859Z,98454.00
2023-04-12T19:15:14.739Z,98453.00
2023-04-12T19:17:42.632Z,98462.00
2023-04-12T19:20:13.908Z,98469.00
2023-04-12T19:22:43.616Z,98475.00
2023-04-12T19:25:11.410Z,98468.00
2023-04-12T19:27:39.181Z,98467.00
2023-04-12T19:30:07.466Z,98471.00
2023-04-12T19:32:35.762Z,98469.00
2023-04-12T19:35:03.860Z,98467.00
2023-04-12T19:37:36.909Z,98469.00
2023-04-12T19:40:05.768Z,98477.00
2023-04-12T19:42:33.561Z,98472.00
2023-04-12T19:45:04.136Z,98481.00
2023-04-12T19:47:32.196Z,98477.00
2023-04-12T19:50:00.181Z,98485.00
2023-04-12T19:52:28.519Z,98493.00
2023-04-12T19:54:57.967Z,98487.00
2023-04-12T19:57:27.840Z,98494.00
2023-04-12T19:59:56.113Z,98500.00
2023-04-12T20:02:24.818Z,98506.00
2023-04-12T20:04:53.649Z,98507.00
2023-04-12T20:07:21.590Z,98504.00
2023-04-12T20:09:49.828Z,98521.00
2023-04-12T20:12:17.975Z,98536.00
2023-04-12T20:14:46.157Z,98542.00
2023-04-12T20:17:15.152Z,98537.00
2023-04-12T20:19:42.912Z,98541.00
2023-04-12T20:22:10.749Z,98545.00
2023-04-12T20:24:38.362Z,98537.00
2023-04-12T20:27:07.618Z,98537.00
2023-04-12T20:29:36.564Z,98536.00
2023-04-12T20:32:04.691Z,98552.00
2023-04-12T20:34:32.506Z,98552.00
2023-04-12T20:37:00.997Z,98559.00
2023-04-12T20:39:30.146Z,98563.00
2023-04-12T20:42:01.443Z,98568.00
2023-04-12T20:44:29.354Z,98570.00
2023-04-12T20:46:57.830Z,98571.00
2023-04-12T20:49:30.329Z,98585.00
2023-04-12T20:51:59.365Z,98596.00
2023-04-12T20:54:30.309Z,98601.00
2023-04-12T20:56:59.993Z,98605.00
2023-04-12T20:59:30.556Z,98594.00
2023-04-12T21:01:58.582Z,98585.00
2023-04-12T21:04:28.035Z,98578.00
2023-04-12T21:06:56.148Z,98581.00
2023-04-12T21:09:24.159Z,98577.00
2023-04-12T21:11:56.546Z,98584.00
2023-04-12T21:14:24.648Z,98579.00
2023-04-12T21:16:52.832Z,98588.00
2023-04-12T21:19:20.996Z,98588.00
2023-04-12T21:21:51.338Z,98594.00
2023-04-12T21:24:19.215Z,98587.00
2023-04-12T21:26:54.803Z,98597.00
2023-04-12T21:29:22.944Z,98592.00
2023-04-12T21:31:51.287Z,98593.00
2023-04-12T21:34:22.088Z,98598.00
2023-04-12T21:36:50.204Z,98590.00
2023-04-12T21:39:18.270Z,98588.00
2023-04-12T21:41:46.346Z,98590.00
2023-04-12T21:44:14.362Z,98589.00
2023-04-12T21:46:42.335Z,98591.00
2023-04-12T21:49:10.226Z,98593.00
2023-04-12T21:51:38.184Z,98592.00
2023-04-12T21:54:06.999Z,98588.00
2023-04-12T21:56:34.852Z,98594.00
2023-04-12T21:59:03.791Z,98579.00
2023-04-12T22:01:33.806Z,98582.00
2023-04-12T22:04:01.805Z,98578.00
2023-04-12T22:06:29.741Z,98573.00
2023-04-12T22:09:02.267Z,98576.00
2023-04-12T22:11:30.737Z,98569.00
2023-04-12T22:14:00.363Z,98567.00
2023-04-12T22:16:33.207Z,98576.00
2023-04-12T22:19:01.325Z,98573.00
2023-04-12T22:21:31.233Z,98574.00
2023-04-12T22:24:00.101Z,98569.00
2023-04-12T22:26:43.875Z,98569.00
2023-04-12T22:29:11.820Z,98565.00
2023-04-12T22:31:39.752Z,98559.00
2023-04-12T22:34:07.551Z,98558.00
2023-04-12T22:36:37.630Z,98553.00
2023-04-12T22:39:05.351Z,98558.00
2023-04-12T22:41:35.971Z,98558.00
2023-04-12T22:44:04.243Z,98576.00
2023-04-12T22:46:34.095Z,98587.00
2023-04-12T22:49:02.381Z,98605.00
2023-04-12T22:51:30.353Z,98606.00
2023-04-12T22:53:58.702Z,98602.00
2023-04-12T22:56:27.391Z,98598.00
2023-04-12T22:58:56.036Z,98599.00
2023-04-12T23:01:24.160Z,98583.00
2023-04-12T23:03:52.220Z,98570.00
2023-04-12T23:06:21.142Z,98574.00
2023-04-12T23:08:50.020Z,98568.00
2023-04-12T23:11:17.740Z,98580.00
2023-04-12T23:13:45.481Z,98572.00
2023-04-12T23:16:13.452Z,98566.00
2023-04-12T23:18:41.363Z,98563.00
2023-04-12T23:21:11.329Z,98555.00
2023-04-12T23:23:39.103Z,98558.00
2023-04-12T23:26:06.874Z,98560.00
2023-04-12T23:28:34.749Z,98559.00
2023-04-12T23:31:02.740Z,98564.00
2023-04-12T23:33:30.702Z,98576.00
2023-04-12T23:36:03.145Z,98581.00
2023-04-12T23:38:34.909Z,98584.00
2023-04-12T23:41:04.335Z,98588.00
2023-04-12T23:43:32.969Z,98590.00
2023-04-12T23:46:01.207Z,98598.00
2023-04-12T23:48:29.197Z,98598.00
2023-04-12T23:50:57.221Z,98603.00
2023-04-12T23:53:25.059Z,98601.00
2023-04-12T23:55:53.775Z,98605.00
2023-04-12T23:58:21.923Z,98614.00
